This is the latest recevied weather packets stored in our database for station/object DB0ROB-10. If no packets are shown the sender has not sent any weather packets the latest 10 day(s).
| Time | Temp. | Humidity | Pressure | Rain* | Wind** | Luminosity | Snow |
|---|---|---|---|---|---|---|---|
| 1778147204 | 14.44° C | 57% | 1013.9 hPa | - | - | - | - |
| 1778146304 | 14.44° C | 56% | 1013.9 hPa | - | - | - | - |
| 1778145403 | 12.22° C | 63% | 1013.8 hPa | - | - | - | - |
| 1778144503 | 14.44° C | 60% | 1013.6 hPa | - | - | - | - |
| 1778143603 | 12.78° C | 64% | 1013.6 hPa | - | - | - | - |
| 1778142702 | 10° C | 74% | 1013.5 hPa | - | - | - | - |
| 1778141802 | 10° C | 76% | 1013.6 hPa | - | - | - | - |
| 1778140901 | 8.89° C | 78% | 1013.4 hPa | - | - | - | - |
| 1778140007 | 10.56° C | 73% | 1013.4 hPa | - | - | - | - |
| 1778139107 | 7.22° C | 87% | 1013.3 hPa | - | - | - | - |
| 1778138207 | 8.33° C | 81% | 1013.1 hPa | - | - | - | - |
| 1778137307 | 8.33° C | 81% | 1013 hPa | - | - | - | - |
| 1778136407 | 8.33° C | 82% | 1012.8 hPa | - | - | - | - |
| 1778135507 | 7.22° C | 86% | 1012.6 hPa | - | - | - | - |
| 1778134606 | 7.78° C | 85% | 1012.6 hPa | - | - | - | - |
| 1778133705 | 7.22° C | 88% | 1012.5 hPa | - | - | - | - |
| 1778132805 | 7.22° C | 88% | 1012.4 hPa | - | - | - | - |
| 1778131905 | 7.22° C | 88% | 1012.2 hPa | - | - | - | - |
| 1778131005 | 6.67° C | 89% | 1012 hPa | - | - | - | - |
| 1778130105 | 6.67° C | 90% | 1011.9 hPa | - | - | - | - |
| 1778129204 | 6.11° C | 90% | 1011.7 hPa | - | - | - | - |
| 1778128303 | 6.67° C | 89% | 1011.5 hPa | - | - | - | - |
| 1778127402 | 6.67° C | 91% | 1011.4 hPa | - | - | - | - |
| 1778126502 | 6.67° C | 90% | 1011.3 hPa | - | - | - | - |
| 1778125602 | 6.67° C | 90% | 1011.2 hPa | - | - | - | - |
* Rain since midnight (hover to see other rain measurements)
** Current wind speed in m/s (hover to see current wind gust speed)